createdAt,value
2022-11-13T00:04:45.975Z,15.27
2022-11-13T00:09:54.813Z,14.77
2022-11-13T00:15:03.215Z,15.20
2022-11-13T00:20:11.379Z,15.27
2022-11-13T00:25:19.280Z,14.20
2022-11-13T00:30:27.261Z,13.90
2022-11-13T00:35:35.607Z,14.30
2022-11-13T00:40:44.778Z,13.53
2022-11-13T00:45:53.239Z,12.87
2022-11-13T00:51:01.314Z,13.30
2022-11-13T00:56:09.386Z,13.93
2022-11-13T01:01:19.510Z,14.53
2022-11-13T01:06:28.478Z,13.57
2022-11-13T01:11:37.395Z,15.53
2022-11-13T01:16:45.231Z,15.37
2022-11-13T01:21:53.036Z,14.53
2022-11-13T01:27:00.851Z,13.83
2022-11-13T01:32:09.091Z,15.30
2022-11-13T01:37:17.176Z,16.90
2022-11-13T01:42:25.048Z,18.07
2022-11-13T01:47:32.994Z,17.00
2022-11-13T01:52:41.368Z,16.67
2022-11-13T01:57:49.193Z,16.37
2022-11-13T02:02:57.028Z,16.80
2022-11-13T02:08:05.370Z,17.33
2022-11-13T02:13:13.419Z,17.63
2022-11-13T02:18:21.659Z,16.97
2022-11-13T02:23:32.728Z,17.30
2022-11-13T02:28:41.245Z,16.40
2022-11-13T02:33:49.437Z,19.83
2022-11-13T02:38:59.373Z,18.23
2022-11-13T02:44:08.012Z,19.27
2022-11-13T02:49:15.831Z,19.47
2022-11-13T02:54:23.706Z,19.53
2022-11-13T02:59:31.544Z,19.17
2022-11-13T03:05:10.462Z,19.83
2022-11-13T03:09:48.970Z,18.20
2022-11-13T03:14:58.262Z,22.13
2022-11-13T03:20:07.564Z,20.63
2022-11-13T03:25:15.434Z,22.30
2022-11-13T03:30:23.330Z,21.50
2022-11-13T03:35:36.296Z,22.07
2022-11-13T03:40:41.371Z,21.50
2022-11-13T03:45:49.313Z,20.67
2022-11-13T03:50:57.984Z,20.30
2022-11-13T03:56:06.572Z,21.07
2022-11-13T04:01:14.500Z,20.00
2022-11-13T04:06:22.659Z,20.67
2022-11-13T04:11:30.992Z,20.17
2022-11-13T04:16:38.954Z,17.43
2022-11-13T04:21:46.847Z,19.83
2022-11-13T04:26:54.666Z,19.27
2022-11-13T04:32:02.483Z,20.60
2022-11-13T04:37:10.651Z,20.27
2022-11-13T04:42:20.784Z,21.30
2022-11-13T04:47:29.186Z,19.53
2022-11-13T04:52:38.028Z,21.30
2022-11-13T04:57:46.467Z,24.33
2022-11-13T05:02:54.310Z,21.60
2022-11-13T05:08:02.271Z,20.10
2022-11-13T05:13:10.670Z,21.00
2022-11-13T05:18:18.663Z,23.13
2022-11-13T05:23:26.597Z,20.20
2022-11-13T05:28:34.515Z,23.13
2022-11-13T05:33:42.869Z,20.83
2022-11-13T05:38:50.827Z,20.57
2022-11-13T05:43:59.987Z,21.57
2022-11-13T05:49:10.768Z,22.23
2022-11-13T05:54:18.619Z,22.57
2022-11-13T05:59:26.641Z,22.43
2022-11-13T06:04:34.540Z,22.87
2022-11-13T06:09:42.407Z,22.83
2022-11-13T06:14:50.288Z,20.27
2022-11-13T06:19:58.144Z,21.83
2022-11-13T06:25:06.411Z,23.23
2022-11-13T06:30:14.927Z,23.93
2022-11-13T06:35:22.815Z,21.37
2022-11-13T06:40:30.711Z,24.17
2022-11-13T06:45:38.681Z,24.47
2022-11-13T06:50:48.586Z,26.47
2022-11-13T06:55:56.278Z,24.53
2022-11-13T07:01:07.357Z,26.90
2022-11-13T07:06:17.942Z,27.27
2022-11-13T07:11:25.824Z,27.57
2022-11-13T07:16:56.352Z,25.20
2022-11-13T07:21:44.151Z,27.27
2022-11-13T07:26:52.039Z,26.03
2022-11-13T07:31:59.968Z,24.60
2022-11-13T07:37:09.162Z,27.80
2022-11-13T07:42:17.274Z,24.33
2022-11-13T07:47:26.599Z,25.70
2022-11-13T07:52:34.466Z,27.77
2022-11-13T07:57:42.398Z,26.00
2022-11-13T08:02:50.850Z,25.60
2022-11-13T08:07:58.863Z,25.70
2022-11-13T08:13:08.402Z,24.00
2022-11-13T08:18:16.346Z,24.50
2022-11-13T08:23:24.373Z,25.63
2022-11-13T08:28:33.375Z,29.10
2022-11-13T08:33:42.063Z,26.20
2022-11-13T08:38:50.468Z,26.33
2022-11-13T08:43:58.401Z,25.83
2022-11-13T08:49:06.603Z,26.53
2022-11-13T08:54:14.510Z,26.27
2022-11-13T08:59:24.405Z,26.77
2022-11-13T09:04:32.262Z,25.33
2022-11-13T09:09:40.187Z,26.33
2022-11-13T09:14:48.187Z,25.20
2022-11-13T09:19:59.467Z,26.53
2022-11-13T09:25:06.506Z,25.47
2022-11-13T09:30:14.657Z,28.53
2022-11-13T09:35:24.539Z,33.00
2022-11-13T09:40:35.770Z,32.43
2022-11-13T09:45:44.222Z,35.47
2022-11-13T09:50:52.238Z,37.60
2022-11-13T09:56:03.238Z,35.50
2022-11-13T10:01:15.166Z,33.03
2022-11-13T10:06:29.163Z,36.30
2022-11-13T10:11:40.751Z,32.90
2022-11-13T10:16:51.778Z,31.80
2022-11-13T10:22:31.071Z,29.07
2022-11-13T10:27:13.529Z,28.20
2022-11-13T10:37:50.002Z,30.30
2022-11-13T10:43:00.974Z,30.37
2022-11-13T10:48:13.039Z,30.73
2022-11-13T10:53:21.516Z,33.30
2022-11-13T10:58:29.831Z,28.23
2022-11-13T11:03:38.029Z,31.77
2022-11-13T11:08:46.921Z,30.53
2022-11-13T11:13:54.764Z,27.00
2022-11-13T11:19:04.307Z,25.80
2022-11-13T11:24:18.091Z,28.70
2022-11-13T11:29:29.134Z,28.43
2022-11-13T11:39:53.009Z,28.63
2022-11-13T11:45:05.093Z,29.27
2022-11-13T11:50:15.672Z,24.47
2022-11-13T11:55:26.639Z,27.53
2022-11-13T12:00:35.079Z,28.43
2022-11-13T12:05:46.075Z,29.50
2022-11-13T12:10:57.986Z,28.37
2022-11-13T12:16:09.792Z,27.93
2022-11-13T12:21:20.791Z,27.73
2022-11-13T12:26:30.679Z,27.33
2022-11-13T12:31:42.050Z,28.33
2022-11-13T12:36:50.104Z,30.10
2022-11-13T12:42:01.520Z,29.33
2022-11-13T12:47:09.329Z,32.10
2022-11-13T12:52:21.034Z,32.30
2022-11-13T12:57:30.837Z,29.10
2022-11-13T13:02:42.089Z,30.20
2022-11-13T13:13:08.869Z,30.47
2022-11-13T13:23:34.159Z,31.67
2022-11-13T13:28:43.887Z,30.97
2022-11-13T13:33:55.577Z,28.47
2022-11-13T13:39:08.418Z,28.87
2022-11-13T13:44:20.443Z,32.80
2022-11-13T13:49:29.666Z,30.97
2022-11-13T13:54:37.590Z,30.87
2022-11-13T13:59:46.674Z,30.10
2022-11-13T14:04:56.005Z,27.50
2022-11-13T14:10:06.373Z,29.73
2022-11-13T14:15:17.330Z,27.77
2022-11-13T14:20:25.287Z,30.23
2022-11-13T14:25:33.591Z,30.27
2022-11-13T14:30:41.594Z,28.43
2022-11-13T14:35:52.410Z,31.63
2022-11-13T14:41:00.299Z,33.97
2022-11-13T14:46:10.597Z,34.57
2022-11-13T14:51:21.531Z,36.43
2022-11-13T14:56:32.863Z,34.43
2022-11-13T15:01:41.018Z,34.73
2022-11-13T15:06:49.045Z,35.13
2022-11-13T15:11:57.137Z,35.93
2022-11-13T15:17:05.445Z,37.80
2022-11-13T15:22:27.290Z,42.87
2022-11-13T15:27:23.706Z,68.17
2022-11-13T15:32:32.748Z,57.30
2022-11-13T15:37:40.802Z,55.93
2022-11-13T15:42:51.378Z,57.47
2022-11-13T15:47:59.261Z,59.80
2022-11-13T15:53:07.222Z,46.10
2022-11-13T15:58:16.976Z,44.13
2022-11-13T16:03:27.008Z,36.37
2022-11-13T16:08:35.275Z,36.37
2022-11-13T16:13:43.191Z,35.73
2022-11-13T16:18:55.850Z,35.20
2022-11-13T16:24:01.182Z,35.70
2022-11-13T16:29:14.127Z,34.90
2022-11-13T16:34:23.500Z,33.90
2022-11-13T16:39:31.364Z,35.47
2022-11-13T16:44:39.496Z,44.30
2022-11-13T16:49:47.315Z,40.07
2022-11-13T16:54:55.288Z,41.73
2022-11-13T17:00:04.615Z,44.50
2022-11-13T17:05:15.280Z,49.87
2022-11-13T17:10:31.520Z,47.33
2022-11-13T17:15:34.022Z,40.70
2022-11-13T17:20:44.449Z,38.97
2022-11-13T17:25:53.573Z,37.63
2022-11-13T17:31:06.561Z,41.33
2022-11-13T17:36:15.198Z,34.43
2022-11-13T17:41:23.906Z,43.17
2022-11-13T17:46:32.181Z,40.87
2022-11-13T17:51:40.415Z,42.97
2022-11-13T17:56:49.245Z,48.50
2022-11-13T18:01:58.824Z,52.27
2022-11-13T18:07:09.263Z,52.17
2022-11-13T18:12:20.286Z,50.30
2022-11-13T18:17:28.414Z,46.60
2022-11-13T18:22:38.506Z,54.17
2022-11-13T18:27:46.621Z,43.93
2022-11-13T18:32:55.430Z,44.30
2022-11-13T18:38:04.340Z,42.47
2022-11-13T18:43:12.326Z,43.23
2022-11-13T18:48:20.246Z,43.37
2022-11-13T18:53:29.902Z,39.53
2022-11-13T18:58:39.378Z,50.60
2022-11-13T19:04:08.182Z,54.77
2022-11-13T19:09:00.195Z,49.20
2022-11-13T19:14:08.808Z,46.43
2022-11-13T19:19:19.368Z,48.73
2022-11-13T19:24:27.690Z,40.77
2022-11-13T19:29:37.557Z,44.70
2022-11-13T19:34:46.866Z,44.13
2022-11-13T19:39:55.343Z,48.97
2022-11-13T19:45:03.650Z,55.47
2022-11-13T19:50:11.866Z,65.07
2022-11-13T19:55:20.344Z,66.17
2022-11-13T20:00:31.392Z,62.33
2022-11-13T20:05:44.068Z,57.77
2022-11-13T20:10:52.188Z,52.73
2022-11-13T20:16:07.370Z,51.93
2022-11-13T20:21:19.943Z,52.17
2022-11-13T20:26:29.375Z,52.10
2022-11-13T20:31:38.708Z,50.07
2022-11-13T20:36:47.493Z,53.80
2022-11-13T20:41:55.539Z,48.67
2022-11-13T20:47:05.145Z,44.07
2022-11-13T20:52:14.127Z,53.80
2022-11-13T20:57:23.131Z,57.43
2022-11-13T21:02:31.235Z,59.23
2022-11-13T21:07:42.769Z,55.03
2022-11-13T21:12:52.162Z,56.53
2022-11-13T21:18:00.254Z,46.87
2022-11-13T21:23:10.185Z,40.30
2022-11-13T21:28:23.400Z,36.67
2022-11-13T21:33:28.358Z,34.03
2022-11-13T21:38:36.997Z,30.40
2022-11-13T21:48:42.365Z,33.53
2022-11-13T21:53:50.359Z,33.07
2022-11-13T21:58:59.469Z,31.73
2022-11-13T22:04:07.797Z,34.67
2022-11-13T22:09:20.441Z,30.37
2022-11-13T22:14:29.215Z,30.97
2022-11-13T22:19:37.756Z,34.10
2022-11-13T22:24:45.673Z,34.17
2022-11-13T22:29:54.232Z,33.47
2022-11-13T22:35:02.156Z,30.97
2022-11-13T22:40:10.762Z,32.07
2022-11-13T22:45:23.766Z,29.40
2022-11-13T22:50:28.285Z,32.47
2022-11-13T22:55:36.269Z,31.80
2022-11-13T23:00:45.358Z,30.93
2022-11-13T23:05:53.283Z,29.63
2022-11-13T23:11:01.484Z,29.07
2022-11-13T23:16:10.318Z,33.13
2022-11-13T23:21:18.544Z,32.73
2022-11-13T23:26:27.393Z,32.20
2022-11-13T23:31:35.211Z,32.30
2022-11-13T23:36:43.023Z,30.90
2022-11-13T23:41:51.472Z,34.83
2022-11-13T23:46:59.386Z,34.20
2022-11-13T23:52:07.371Z,32.37
2022-11-13T23:57:16.704Z,29.60
